sensor_id;sensor_type;location;lat;lon;timestamp;P1;durP1;ratioP1;P2;durP2;ratioP2
33206;SDS011;19565;46.602;11.534;2022-11-15T00:01:09;3.60;;;3.40;;
33206;SDS011;19565;46.602;11.534;2022-11-15T00:03:41;3.60;;;3.40;;
33206;SDS011;19565;46.602;11.534;2022-11-15T00:06:10;3.23;;;3.03;;
33206;SDS011;19565;46.602;11.534;2022-11-15T00:08:39;3.30;;;3.10;;
33206;SDS011;19565;46.602;11.534;2022-11-15T00:11:08;1.60;;;1.40;;
33206;SDS011;19565;46.602;11.534;2022-11-15T00:13:38;0.93;;;0.90;;
33206;SDS011;19565;46.602;11.534;2022-11-15T00:16:06;0.70;;;0.70;;
33206;SDS011;19565;46.602;11.534;2022-11-15T00:18:35;0.50;;;0.50;;
33206;SDS011;19565;46.602;11.534;2022-11-15T00:21:03;0.97;;;0.97;;
33206;SDS011;19565;46.602;11.534;2022-11-15T00:23:36;1.33;;;1.23;;
33206;SDS011;19565;46.602;11.534;2022-11-15T00:26:05;1.40;;;1.20;;
33206;SDS011;19565;46.602;11.534;2022-11-15T00:28:33;1.63;;;1.27;;
33206;SDS011;19565;46.602;11.534;2022-11-15T00:31:01;1.53;;;1.43;;
33206;SDS011;19565;46.602;11.534;2022-11-15T00:33:30;1.03;;;1.03;;
33206;SDS011;19565;46.602;11.534;2022-11-15T00:35:59;0.70;;;0.70;;
33206;SDS011;19565;46.602;11.534;2022-11-15T00:38:30;0.60;;;0.60;;
33206;SDS011;19565;46.602;11.534;2022-11-15T00:41:00;1.07;;;0.97;;
33206;SDS011;19565;46.602;11.534;2022-11-15T00:43:34;1.20;;;1.10;;
33206;SDS011;19565;46.602;11.534;2022-11-15T00:46:03;1.73;;;1.63;;
33206;SDS011;19565;46.602;11.534;2022-11-15T00:48:31;17.93;;;2.67;;
33206;SDS011;19565;46.602;11.534;2022-11-15T00:50:59;3.17;;;1.97;;
33206;SDS011;19565;46.602;11.534;2022-11-15T00:53:27;1.77;;;1.00;;
33206;SDS011;19565;46.602;11.534;2022-11-15T00:55:55;2.20;;;1.50;;
33206;SDS011;19565;46.602;11.534;2022-11-15T00:58:25;0.60;;;0.60;;
33206;SDS011;19565;46.602;11.534;2022-11-15T01:00:53;1.10;;;1.03;;
33206;SDS011;19565;46.602;11.534;2022-11-15T01:03:21;0.90;;;0.90;;
33206;SDS011;19565;46.602;11.534;2022-11-15T01:05:49;1.03;;;1.03;;
33206;SDS011;19565;46.602;11.534;2022-11-15T01:08:17;0.97;;;0.93;;
33206;SDS011;19565;46.602;11.534;2022-11-15T01:10:45;2.07;;;1.83;;
33206;SDS011;19565;46.602;11.534;2022-11-15T01:13:13;1.27;;;1.17;;
33206;SDS011;19565;46.602;11.534;2022-11-15T01:15:42;1.33;;;1.10;;
33206;SDS011;19565;46.602;11.534;2022-11-15T01:18:10;2.37;;;1.93;;
33206;SDS011;19565;46.602;11.534;2022-11-15T01:20:39;0.90;;;0.90;;
33206;SDS011;19565;46.602;11.534;2022-11-15T01:23:08;1.33;;;1.23;;
33206;SDS011;19565;46.602;11.534;2022-11-15T01:25:36;2.77;;;2.57;;
33206;SDS011;19565;46.602;11.534;2022-11-15T01:28:04;1.57;;;1.33;;
33206;SDS011;19565;46.602;11.534;2022-11-15T01:30:32;2.03;;;1.90;;
33206;SDS011;19565;46.602;11.534;2022-11-15T01:33:01;1.43;;;1.33;;
33206;SDS011;19565;46.602;11.534;2022-11-15T01:35:29;1.43;;;1.33;;
33206;SDS011;19565;46.602;11.534;2022-11-15T01:37:57;1.50;;;1.40;;
33206;SDS011;19565;46.602;11.534;2022-11-15T01:40:25;2.50;;;2.30;;
33206;SDS011;19565;46.602;11.534;2022-11-15T01:42:53;0.70;;;0.70;;
33206;SDS011;19565;46.602;11.534;2022-11-15T01:45:21;0.70;;;0.70;;
33206;SDS011;19565;46.602;11.534;2022-11-15T01:47:50;2.93;;;1.23;;
33206;SDS011;19565;46.602;11.534;2022-11-15T01:50:22;2.20;;;1.40;;
33206;SDS011;19565;46.602;11.534;2022-11-15T01:52:53;3.57;;;1.87;;
33206;SDS011;19565;46.602;11.534;2022-11-15T01:55:21;1.17;;;1.17;;
33206;SDS011;19565;46.602;11.534;2022-11-15T01:57:53;2.30;;;2.10;;
33206;SDS011;19565;46.602;11.534;2022-11-15T02:00:23;1.73;;;1.63;;
33206;SDS011;19565;46.602;11.534;2022-11-15T02:02:52;1.40;;;1.30;;
33206;SDS011;19565;46.602;11.534;2022-11-15T02:05:21;1.53;;;1.43;;
33206;SDS011;19565;46.602;11.534;2022-11-15T02:07:49;0.67;;;0.67;;
33206;SDS011;19565;46.602;11.534;2022-11-15T02:10:19;0.60;;;0.60;;
33206;SDS011;19565;46.602;11.534;2022-11-15T02:12:48;0.90;;;0.90;;
33206;SDS011;19565;46.602;11.534;2022-11-15T02:15:17;0.70;;;0.70;;
33206;SDS011;19565;46.602;11.534;2022-11-15T02:17:49;1.10;;;1.10;;
33206;SDS011;19565;46.602;11.534;2022-11-15T02:23:26;2.03;;;1.87;;
33206;SDS011;19565;46.602;11.534;2022-11-15T02:26:31;1.17;;;1.00;;
33206;SDS011;19565;46.602;11.534;2022-11-15T02:29:19;0.90;;;0.90;;
33206;SDS011;19565;46.602;11.534;2022-11-15T02:31:58;0.57;;;0.57;;
33206;SDS011;19565;46.602;11.534;2022-11-15T02:34:35;1.00;;;0.90;;
33206;SDS011;19565;46.602;11.534;2022-11-15T02:37:14;1.23;;;1.17;;
33206;SDS011;19565;46.602;11.534;2022-11-15T02:39:46;1.30;;;1.20;;
33206;SDS011;19565;46.602;11.534;2022-11-15T02:42:19;0.60;;;0.60;;
33206;SDS011;19565;46.602;11.534;2022-11-15T02:45:10;1.30;;;1.23;;
33206;SDS011;19565;46.602;11.534;2022-11-15T02:47:45;0.90;;;0.90;;
33206;SDS011;19565;46.602;11.534;2022-11-15T02:50:18;2.87;;;2.03;;
33206;SDS011;19565;46.602;11.534;2022-11-15T02:52:48;1.57;;;1.47;;
33206;SDS011;19565;46.602;11.534;2022-11-15T02:55:26;0.60;;;0.60;;
33206;SDS011;19565;46.602;11.534;2022-11-15T02:58:03;1.60;;;1.10;;
33206;SDS011;19565;46.602;11.534;2022-11-15T03:00:42;0.70;;;0.70;;
33206;SDS011;19565;46.602;11.534;2022-11-15T03:03:23;0.60;;;0.60;;
33206;SDS011;19565;46.602;11.534;2022-11-15T03:06:04;3.40;;;3.20;;
33206;SDS011;19565;46.602;11.534;2022-11-15T03:08:44;3.80;;;3.60;;
33206;SDS011;19565;46.602;11.534;2022-11-15T03:11:22;5.17;;;4.73;;
33206;SDS011;19565;46.602;11.534;2022-11-15T03:13:53;4.20;;;4.00;;
33206;SDS011;19565;46.602;11.534;2022-11-15T03:16:27;5.60;;;5.30;;
33206;SDS011;19565;46.602;11.534;2022-11-15T03:19:00;7.83;;;5.43;;
33206;SDS011;19565;46.602;11.534;2022-11-15T03:21:32;5.20;;;4.90;;
33206;SDS011;19565;46.602;11.534;2022-11-15T03:24:03;5.00;;;4.70;;
33206;SDS011;19565;46.602;11.534;2022-11-15T03:26:34;4.30;;;4.10;;
33206;SDS011;19565;46.602;11.534;2022-11-15T03:29:06;5.17;;;4.87;;
33206;SDS011;19565;46.602;11.534;2022-11-15T03:31:41;5.17;;;4.87;;
33206;SDS011;19565;46.602;11.534;2022-11-15T03:34:21;5.23;;;4.93;;
33206;SDS011;19565;46.602;11.534;2022-11-15T03:36:57;5.00;;;4.70;;
33206;SDS011;19565;46.602;11.534;2022-11-15T03:39:25;5.27;;;4.97;;
33206;SDS011;19565;46.602;11.534;2022-11-15T03:41:57;5.20;;;4.90;;
33206;SDS011;19565;46.602;11.534;2022-11-15T03:44:35;4.40;;;4.10;;
33206;SDS011;19565;46.602;11.534;2022-11-15T03:47:09;4.93;;;4.63;;
33206;SDS011;19565;46.602;11.534;2022-11-15T03:49:42;4.30;;;4.10;;
33206;SDS011;19565;46.602;11.534;2022-11-15T03:52:14;4.73;;;4.43;;
33206;SDS011;19565;46.602;11.534;2022-11-15T03:54:52;4.57;;;4.30;;
33206;SDS011;19565;46.602;11.534;2022-11-15T03:57:22;4.53;;;4.33;;
33206;SDS011;19565;46.602;11.534;2022-11-15T03:59:50;5.00;;;4.70;;
33206;SDS011;19565;46.602;11.534;2022-11-15T04:02:18;4.93;;;4.63;;
33206;SDS011;19565;46.602;11.534;2022-11-15T04:04:48;4.60;;;4.30;;
33206;SDS011;19565;46.602;11.534;2022-11-15T04:07:16;4.90;;;4.60;;
33206;SDS011;19565;46.602;11.534;2022-11-15T04:09:44;5.50;;;5.20;;
33206;SDS011;19565;46.602;11.534;2022-11-15T04:12:31;5.27;;;4.97;;
33206;SDS011;19565;46.602;11.534;2022-11-15T04:15:01;6.23;;;5.80;;
33206;SDS011;19565;46.602;11.534;2022-11-15T04:17:37;5.30;;;5.00;;
33206;SDS011;19565;46.602;11.534;2022-11-15T04:20:09;5.43;;;5.13;;
33206;SDS011;19565;46.602;11.534;2022-11-15T04:22:58;6.50;;;6.10;;
33206;SDS011;19565;46.602;11.534;2022-11-15T04:25:45;6.27;;;5.67;;
33206;SDS011;19565;46.602;11.534;2022-11-15T04:28:14;6.80;;;6.40;;
33206;SDS011;19565;46.602;11.534;2022-11-15T04:30:42;6.30;;;5.90;;
33206;SDS011;19565;46.602;11.534;2022-11-15T04:33:10;7.00;;;6.60;;
33206;SDS011;19565;46.602;11.534;2022-11-15T04:35:40;1.00;;;1.00;;
33206;SDS011;19565;46.602;11.534;2022-11-15T04:38:09;1.23;;;1.20;;
33206;SDS011;19565;46.602;11.534;2022-11-15T04:40:37;1.30;;;1.20;;
33206;SDS011;19565;46.602;11.534;2022-11-15T04:43:05;1.70;;;1.60;;
33206;SDS011;19565;46.602;11.534;2022-11-15T04:45:33;1.47;;;1.37;;
33206;SDS011;19565;46.602;11.534;2022-11-15T04:48:01;1.00;;;1.00;;
33206;SDS011;19565;46.602;11.534;2022-11-15T04:50:30;1.23;;;1.13;;
33206;SDS011;19565;46.602;11.534;2022-11-15T04:52:59;0.87;;;0.87;;
33206;SDS011;19565;46.602;11.534;2022-11-15T04:55:27;0.80;;;0.80;;
33206;SDS011;19565;46.602;11.534;2022-11-15T04:57:58;1.00;;;1.00;;
33206;SDS011;19565;46.602;11.534;2022-11-15T05:00:27;0.93;;;0.93;;
33206;SDS011;19565;46.602;11.534;2022-11-15T05:02:55;6.97;;;6.50;;
33206;SDS011;19565;46.602;11.534;2022-11-15T05:05:41;6.67;;;6.27;;
33206;SDS011;19565;46.602;11.534;2022-11-15T05:08:12;7.53;;;7.13;;
33206;SDS011;19565;46.602;11.534;2022-11-15T05:10:40;7.77;;;7.27;;
33206;SDS011;19565;46.602;11.534;2022-11-15T05:13:08;7.80;;;7.30;;
33206;SDS011;19565;46.602;11.534;2022-11-15T05:15:36;9.23;;;8.63;;
33206;SDS011;19565;46.602;11.534;2022-11-15T05:18:04;1.20;;;1.20;;
33206;SDS011;19565;46.602;11.534;2022-11-15T05:20:32;1.50;;;1.40;;
33206;SDS011;19565;46.602;11.534;2022-11-15T05:23:00;1.83;;;1.73;;
33206;SDS011;19565;46.602;11.534;2022-11-15T05:25:30;70.83;;;66.73;;
33206;SDS011;19565;46.602;11.534;2022-11-15T05:27:58;7.40;;;6.90;;
33206;SDS011;19565;46.602;11.534;2022-11-15T05:30:26;8.17;;;7.67;;
33206;SDS011;19565;46.602;11.534;2022-11-15T05:32:55;8.73;;;8.23;;
33206;SDS011;19565;46.602;11.534;2022-11-15T05:35:25;8.67;;;8.17;;
33206;SDS011;19565;46.602;11.534;2022-11-15T05:37:57;8.50;;;8.00;;
33206;SDS011;19565;46.602;11.534;2022-11-15T05:40:25;6.60;;;6.20;;
33206;SDS011;19565;46.602;11.534;2022-11-15T05:42:55;7.10;;;6.60;;
33206;SDS011;19565;46.602;11.534;2022-11-15T05:45:24;6.90;;;6.50;;
33206;SDS011;19565;46.602;11.534;2022-11-15T05:47:52;7.27;;;6.77;;
33206;SDS011;19565;46.602;11.534;2022-11-15T05:50:24;8.63;;;8.13;;
33206;SDS011;19565;46.602;11.534;2022-11-15T05:52:52;9.03;;;8.13;;
33206;SDS011;19565;46.602;11.534;2022-11-15T05:55:29;8.73;;;8.13;;
33206;SDS011;19565;46.602;11.534;2022-11-15T05:58:01;7.57;;;7.13;;
33206;SDS011;19565;46.602;11.534;2022-11-15T06:00:29;6.80;;;6.40;;
33206;SDS011;19565;46.602;11.534;2022-11-15T06:02:57;6.93;;;6.53;;
33206;SDS011;19565;46.602;11.534;2022-11-15T06:05:28;7.00;;;6.60;;
33206;SDS011;19565;46.602;11.534;2022-11-15T06:07:56;7.03;;;6.53;;
33206;SDS011;19565;46.602;11.534;2022-11-15T06:10:25;7.27;;;6.83;;
33206;SDS011;19565;46.602;11.534;2022-11-15T06:12:56;8.13;;;7.63;;
33206;SDS011;19565;46.602;11.534;2022-11-15T06:15:26;8.70;;;8.00;;
33206;SDS011;19565;46.602;11.534;2022-11-15T06:17:55;8.50;;;7.90;;
33206;SDS011;19565;46.602;11.534;2022-11-15T06:20:24;14.50;;;2.00;;
33206;SDS011;19565;46.602;11.534;2022-11-15T06:22:55;2.13;;;2.03;;
33206;SDS011;19565;46.602;11.534;2022-11-15T06:25:24;2.30;;;2.20;;
33206;SDS011;19565;46.602;11.534;2022-11-15T06:27:53;2.23;;;2.03;;
33206;SDS011;19565;46.602;11.534;2022-11-15T06:30:22;3.90;;;1.73;;
33206;SDS011;19565;46.602;11.534;2022-11-15T06:32:52;1.30;;;1.30;;
33206;SDS011;19565;46.602;11.534;2022-11-15T06:35:26;3.33;;;2.40;;
33206;SDS011;19565;46.602;11.534;2022-11-15T06:37:55;25.07;;;2.67;;
33206;SDS011;19565;46.602;11.534;2022-11-15T06:40:23;1.40;;;1.40;;
33206;SDS011;19565;46.602;11.534;2022-11-15T06:42:54;1.33;;;1.33;;
33206;SDS011;19565;46.602;11.534;2022-11-15T06:45:25;1.67;;;1.57;;
33206;SDS011;19565;46.602;11.534;2022-11-15T06:47:54;2.03;;;1.93;;
33206;SDS011;19565;46.602;11.534;2022-11-15T06:50:22;5.23;;;4.93;;
33206;SDS011;19565;46.602;11.534;2022-11-15T06:52:50;5.20;;;4.90;;
33206;SDS011;19565;46.602;11.534;2022-11-15T06:55:18;7.13;;;6.63;;
33206;SDS011;19565;46.602;11.534;2022-11-15T06:57:47;5.40;;;5.10;;
33206;SDS011;19565;46.602;11.534;2022-11-15T07:00:16;5.37;;;5.07;;
33206;SDS011;19565;46.602;11.534;2022-11-15T07:02:45;5.27;;;4.97;;
33206;SDS011;19565;46.602;11.534;2022-11-15T07:05:15;5.57;;;5.17;;
33206;SDS011;19565;46.602;11.534;2022-11-15T07:07:43;5.50;;;5.20;;
33206;SDS011;19565;46.602;11.534;2022-11-15T07:10:17;5.83;;;5.33;;
33206;SDS011;19565;46.602;11.534;2022-11-15T07:12:46;5.50;;;5.17;;
33206;SDS011;19565;46.602;11.534;2022-11-15T07:15:14;5.40;;;5.10;;
33206;SDS011;19565;46.602;11.534;2022-11-15T07:17:42;4.93;;;4.63;;
33206;SDS011;19565;46.602;11.534;2022-11-15T07:20:11;5.47;;;5.07;;
33206;SDS011;19565;46.602;11.534;2022-11-15T07:22:41;5.07;;;4.77;;
33206;SDS011;19565;46.602;11.534;2022-11-15T07:25:11;8.67;;;4.70;;
33206;SDS011;19565;46.602;11.534;2022-11-15T07:27:39;5.93;;;5.37;;
33206;SDS011;19565;46.602;11.534;2022-11-15T07:30:07;5.00;;;4.70;;
33206;SDS011;19565;46.602;11.534;2022-11-15T07:32:36;6.27;;;5.70;;
33206;SDS011;19565;46.602;11.534;2022-11-15T07:35:04;5.30;;;5.00;;
33206;SDS011;19565;46.602;11.534;2022-11-15T07:37:33;6.37;;;5.77;;
33206;SDS011;19565;46.602;11.534;2022-11-15T07:40:02;2.37;;;2.17;;
33206;SDS011;19565;46.602;11.534;2022-11-15T07:42:30;1.70;;;1.60;;
33206;SDS011;19565;46.602;11.534;2022-11-15T07:45:16;2.47;;;2.27;;
33206;SDS011;19565;46.602;11.534;2022-11-15T07:47:46;1.20;;;1.20;;
33206;SDS011;19565;46.602;11.534;2022-11-15T07:50:14;1.77;;;1.63;;
33206;SDS011;19565;46.602;11.534;2022-11-15T07:52:43;1.60;;;1.50;;
33206;SDS011;19565;46.602;11.534;2022-11-15T07:55:12;2.40;;;2.20;;
33206;SDS011;19565;46.602;11.534;2022-11-15T07:57:40;1.00;;;1.00;;
33206;SDS011;19565;46.602;11.534;2022-11-15T08:00:09;1.43;;;1.40;;
33206;SDS011;19565;46.602;11.534;2022-11-15T08:02:37;1.50;;;1.40;;
33206;SDS011;19565;46.602;11.534;2022-11-15T08:05:08;1.30;;;1.23;;
33206;SDS011;19565;46.602;11.534;2022-11-15T08:07:36;1.90;;;1.80;;
33206;SDS011;19565;46.602;11.534;2022-11-15T08:10:06;1.20;;;1.17;;
33206;SDS011;19565;46.602;11.534;2022-11-15T08:12:36;2.13;;;2.03;;
33206;SDS011;19565;46.602;11.534;2022-11-15T08:15:05;5.83;;;5.43;;
33206;SDS011;19565;46.602;11.534;2022-11-15T08:17:33;5.50;;;5.17;;
33206;SDS011;19565;46.602;11.534;2022-11-15T08:20:01;6.03;;;5.63;;
33206;SDS011;19565;46.602;11.534;2022-11-15T08:22:29;5.50;;;5.20;;
33206;SDS011;19565;46.602;11.534;2022-11-15T08:24:58;5.87;;;5.53;;
33206;SDS011;19565;46.602;11.534;2022-11-15T08:27:26;6.77;;;6.37;;
33206;SDS011;19565;46.602;11.534;2022-11-15T08:29:55;6.07;;;5.67;;
33206;SDS011;19565;46.602;11.534;2022-11-15T08:32:24;6.70;;;6.20;;
33206;SDS011;19565;46.602;11.534;2022-11-15T08:34:53;6.57;;;6.17;;
33206;SDS011;19565;46.602;11.534;2022-11-15T08:37:23;6.77;;;6.37;;
33206;SDS011;19565;46.602;11.534;2022-11-15T08:39:51;80.00;;;75.97;;
33206;SDS011;19565;46.602;11.534;2022-11-15T08:42:19;1.90;;;1.80;;
33206;SDS011;19565;46.602;11.534;2022-11-15T08:44:46;2.00;;;1.90;;
33206;SDS011;19565;46.602;11.534;2022-11-15T08:47:16;2.37;;;2.27;;
33206;SDS011;19565;46.602;11.534;2022-11-15T08:49:44;3.73;;;3.50;;
33206;SDS011;19565;46.602;11.534;2022-11-15T08:52:12;2.50;;;2.40;;
33206;SDS011;19565;46.602;11.534;2022-11-15T08:54:41;3.00;;;2.83;;
33206;SDS011;19565;46.602;11.534;2022-11-15T08:57:09;2.30;;;2.20;;
33206;SDS011;19565;46.602;11.534;2022-11-15T08:59:37;3.70;;;3.43;;
33206;SDS011;19565;46.602;11.534;2022-11-15T09:02:05;9.93;;;9.33;;
33206;SDS011;19565;46.602;11.534;2022-11-15T09:04:34;9.60;;;9.10;;
33206;SDS011;19565;46.602;11.534;2022-11-15T09:07:02;10.40;;;9.80;;
33206;SDS011;19565;46.602;11.534;2022-11-15T09:09:30;11.13;;;10.53;;
33206;SDS011;19565;46.602;11.534;2022-11-15T09:11:58;10.50;;;9.90;;
33206;SDS011;19565;46.602;11.534;2022-11-15T09:14:28;11.53;;;10.90;;
33206;SDS011;19565;46.602;11.534;2022-11-15T09:16:56;10.73;;;10.03;;
33206;SDS011;19565;46.602;11.534;2022-11-15T09:19:25;13.87;;;13.17;;
33206;SDS011;19565;46.602;11.534;2022-11-15T09:21:54;11.00;;;10.30;;
33206;SDS011;19565;46.602;11.534;2022-11-15T09:24:22;11.00;;;10.40;;
33206;SDS011;19565;46.602;11.534;2022-11-15T09:26:51;11.93;;;11.23;;
33206;SDS011;19565;46.602;11.534;2022-11-15T09:29:19;12.50;;;11.87;;
33206;SDS011;19565;46.602;11.534;2022-11-15T09:31:47;12.03;;;11.33;;
33206;SDS011;19565;46.602;11.534;2022-11-15T09:34:15;12.70;;;12.00;;
33206;SDS011;19565;46.602;11.534;2022-11-15T09:36:43;12.67;;;11.90;;
33206;SDS011;19565;46.602;11.534;2022-11-15T09:39:12;11.53;;;10.93;;
33206;SDS011;19565;46.602;11.534;2022-11-15T09:41:45;11.40;;;10.70;;
33206;SDS011;19565;46.602;11.534;2022-11-15T09:44:29;11.60;;;11.00;;
33206;SDS011;19565;46.602;11.534;2022-11-15T09:47:25;12.03;;;11.43;;
33206;SDS011;19565;46.602;11.534;2022-11-15T09:50:08;12.37;;;11.67;;
33206;SDS011;19565;46.602;11.534;2022-11-15T09:52:39;11.80;;;11.20;;
33206;SDS011;19565;46.602;11.534;2022-11-15T09:55:11;11.90;;;11.30;;
33206;SDS011;19565;46.602;11.534;2022-11-15T09:57:50;11.47;;;10.87;;
33206;SDS011;19565;46.602;11.534;2022-11-15T10:00:24;13.13;;;12.43;;
33206;SDS011;19565;46.602;11.534;2022-11-15T10:03:14;13.43;;;12.63;;
33206;SDS011;19565;46.602;11.534;2022-11-15T10:05:44;12.70;;;12.00;;
33206;SDS011;19565;46.602;11.534;2022-11-15T10:08:20;12.97;;;12.27;;
33206;SDS011;19565;46.602;11.534;2022-11-15T10:11:01;11.63;;;11.03;;
33206;SDS011;19565;46.602;11.534;2022-11-15T10:13:51;12.23;;;11.63;;
33206;SDS011;19565;46.602;11.534;2022-11-15T10:16:29;12.27;;;11.67;;
33206;SDS011;19565;46.602;11.534;2022-11-15T10:19:07;12.97;;;12.27;;
33206;SDS011;19565;46.602;11.534;2022-11-15T10:21:47;12.90;;;12.20;;
33206;SDS011;19565;46.602;11.534;2022-11-15T10:24:23;13.30;;;12.60;;
33206;SDS011;19565;46.602;11.534;2022-11-15T10:26:55;12.70;;;12.00;;
33206;SDS011;19565;46.602;11.534;2022-11-15T10:29:24;11.90;;;11.30;;
33206;SDS011;19565;46.602;11.534;2022-11-15T10:31:52;13.10;;;12.40;;
33206;SDS011;19565;46.602;11.534;2022-11-15T10:34:21;14.37;;;13.67;;
33206;SDS011;19565;46.602;11.534;2022-11-15T10:36:54;13.40;;;12.70;;
33206;SDS011;19565;46.602;11.534;2022-11-15T10:39:23;15.07;;;14.30;;
33206;SDS011;19565;46.602;11.534;2022-11-15T10:41:52;15.10;;;14.40;;
33206;SDS011;19565;46.602;11.534;2022-11-15T10:44:25;15.93;;;15.10;;
33206;SDS011;19565;46.602;11.534;2022-11-15T10:49:53;5.23;;;4.93;;
33206;SDS011;19565;46.602;11.534;2022-11-15T10:52:26;6.27;;;5.23;;
33206;SDS011;19565;46.602;11.534;2022-11-15T10:54:56;5.00;;;4.70;;
33206;SDS011;19565;46.602;11.534;2022-11-15T10:57:29;7.23;;;6.03;;
33206;SDS011;19565;46.602;11.534;2022-11-15T11:00:03;5.30;;;5.00;;
33206;SDS011;19565;46.602;11.534;2022-11-15T11:02:34;4.87;;;4.57;;
33206;SDS011;19565;46.602;11.534;2022-11-15T11:05:05;6.00;;;5.60;;
33206;SDS011;19565;46.602;11.534;2022-11-15T11:07:55;19.53;;;5.30;;
33206;SDS011;19565;46.602;11.534;2022-11-15T11:10:24;4.73;;;4.43;;
33206;SDS011;19565;46.602;11.534;2022-11-15T11:13:13;4.90;;;4.60;;
33206;SDS011;19565;46.602;11.534;2022-11-15T11:15:44;4.83;;;4.53;;
33206;SDS011;19565;46.602;11.534;2022-11-15T11:18:19;5.80;;;5.50;;
33206;SDS011;19565;46.602;11.534;2022-11-15T11:20:56;6.03;;;5.57;;
33206;SDS011;19565;46.602;11.534;2022-11-15T11:23:35;5.60;;;5.30;;
33206;SDS011;19565;46.602;11.534;2022-11-15T11:26:14;7.07;;;6.57;;
33206;SDS011;19565;46.602;11.534;2022-11-15T11:28:56;7.00;;;6.60;;
33206;SDS011;19565;46.602;11.534;2022-11-15T11:31:37;8.10;;;7.60;;
33206;SDS011;19565;46.602;11.534;2022-11-15T11:34:15;8.50;;;8.00;;
33206;SDS011;19565;46.602;11.534;2022-11-15T11:36:48;11.40;;;10.80;;
33206;SDS011;19565;46.602;11.534;2022-11-15T11:39:24;14.23;;;13.53;;
33206;SDS011;19565;46.602;11.534;2022-11-15T11:42:01;16.03;;;15.23;;
33206;SDS011;19565;46.602;11.534;2022-11-15T11:44:39;22.10;;;21.10;;
33206;SDS011;19565;46.602;11.534;2022-11-15T11:47:18;21.83;;;20.83;;
33206;SDS011;19565;46.602;11.534;2022-11-15T11:49:50;27.80;;;26.27;;
33206;SDS011;19565;46.602;11.534;2022-11-15T11:52:22;25.63;;;24.43;;
33206;SDS011;19565;46.602;11.534;2022-11-15T11:54:56;33.57;;;32.07;;
33206;SDS011;19565;46.602;11.534;2022-11-15T11:57:31;28.43;;;27.17;;
33206;SDS011;19565;46.602;11.534;2022-11-15T12:00:12;33.80;;;32.33;;
33206;SDS011;19565;46.602;11.534;2022-11-15T12:02:45;34.50;;;33.00;;
33206;SDS011;19565;46.602;11.534;2022-11-15T12:05:18;35.83;;;34.27;;
33206;SDS011;19565;46.602;11.534;2022-11-15T12:07:54;28.37;;;27.07;;
33206;SDS011;19565;46.602;11.534;2022-11-15T12:10:30;25.30;;;24.10;;
33206;SDS011;19565;46.602;11.534;2022-11-15T12:13:02;27.38;;;26.08;;
33206;SDS011;19565;46.602;11.534;2022-11-15T12:15:35;25.23;;;24.03;;
33206;SDS011;19565;46.602;11.534;2022-11-15T12:18:09;24.07;;;22.87;;
33206;SDS011;19565;46.602;11.534;2022-11-15T12:20:41;24.77;;;23.57;;
33206;SDS011;19565;46.602;11.534;2022-11-15T12:23:20;22.27;;;21.27;;
33206;SDS011;19565;46.602;11.534;2022-11-15T12:25:55;28.50;;;27.20;;
33206;SDS011;19565;46.602;11.534;2022-11-15T12:28:29;29.60;;;28.30;;
33206;SDS011;19565;46.602;11.534;2022-11-15T12:31:24;31.77;;;29.60;;
33206;SDS011;19565;46.602;11.534;2022-11-15T12:34:01;27.97;;;26.77;;
33206;SDS011;19565;46.602;11.534;2022-11-15T12:36:35;26.20;;;25.00;;
33206;SDS011;19565;46.602;11.534;2022-11-15T12:39:05;31.63;;;30.23;;
33206;SDS011;19565;46.602;11.534;2022-11-15T12:41:35;29.60;;;28.30;;
33206;SDS011;19565;46.602;11.534;2022-11-15T12:44:04;30.57;;;29.23;;
33206;SDS011;19565;46.602;11.534;2022-11-15T12:49:45;26.90;;;25.67;;
33206;SDS011;19565;46.602;11.534;2022-11-15T12:52:14;28.17;;;26.87;;
33206;SDS011;19565;46.602;11.534;2022-11-15T12:54:49;29.33;;;28.02;;
33206;SDS011;19565;46.602;11.534;2022-11-15T12:57:31;25.70;;;24.50;;
33206;SDS011;19565;46.602;11.534;2022-11-15T13:03:19;26.23;;;25.03;;
33206;SDS011;19565;46.602;11.534;2022-11-15T13:09:00;25.20;;;24.00;;
33206;SDS011;19565;46.602;11.534;2022-11-15T13:14:43;27.10;;;25.67;;
33206;SDS011;19565;46.602;11.534;2022-11-15T13:17:23;32.10;;;30.50;;
33206;SDS011;19565;46.602;11.534;2022-11-15T13:19:57;29.37;;;28.10;;
33206;SDS011;19565;46.602;11.534;2022-11-15T13:22:38;30.40;;;29.00;;
33206;SDS011;19565;46.602;11.534;2022-11-15T13:28:22;31.27;;;29.87;;
33206;SDS011;19565;46.602;11.534;2022-11-15T13:30:58;28.97;;;27.67;;
33206;SDS011;19565;46.602;11.534;2022-11-15T13:33:30;32.37;;;30.87;;
33206;SDS011;19565;46.602;11.534;2022-11-15T13:36:02;30.60;;;29.20;;
33206;SDS011;19565;46.602;11.534;2022-11-15T13:38:33;29.67;;;28.37;;
33206;SDS011;19565;46.602;11.534;2022-11-15T13:41:11;29.27;;;27.97;;
33206;SDS011;19565;46.602;11.534;2022-11-15T13:43:46;30.00;;;28.60;;
33206;SDS011;19565;46.602;11.534;2022-11-15T13:46:15;29.00;;;27.70;;
33206;SDS011;19565;46.602;11.534;2022-11-15T13:48:46;31.70;;;30.30;;
33206;SDS011;19565;46.602;11.534;2022-11-15T13:51:15;29.00;;;27.70;;
33206;SDS011;19565;46.602;11.534;2022-11-15T13:53:51;34.80;;;33.30;;
33206;SDS011;19565;46.602;11.534;2022-11-15T13:56:22;25.30;;;24.20;;
33206;SDS011;19565;46.602;11.534;2022-11-15T13:58:53;25.53;;;24.33;;
33206;SDS011;19565;46.602;11.534;2022-11-15T14:01:21;34.20;;;32.57;;
33206;SDS011;19565;46.602;11.534;2022-11-15T14:03:53;28.03;;;26.83;;
33206;SDS011;19565;46.602;11.534;2022-11-15T14:06:23;31.30;;;29.80;;
33206;SDS011;19565;46.602;11.534;2022-11-15T14:12:19;41.97;;;40.07;;
33206;SDS011;19565;46.602;11.534;2022-11-15T14:14:54;48.47;;;46.47;;
33206;SDS011;19565;46.602;11.534;2022-11-15T14:17:33;37.20;;;35.60;;
33206;SDS011;19565;46.602;11.534;2022-11-15T14:20:28;41.83;;;40.03;;
33206;SDS011;19565;46.602;11.534;2022-11-15T14:22:59;40.77;;;38.87;;
33206;SDS011;19565;46.602;11.534;2022-11-15T14:25:29;32.40;;;30.90;;
33206;SDS011;19565;46.602;11.534;2022-11-15T14:28:08;31.67;;;30.23;;
33206;SDS011;19565;46.602;11.534;2022-11-15T14:30:40;37.80;;;36.00;;
33206;SDS011;19565;46.602;11.534;2022-11-15T14:33:18;30.70;;;29.30;;
33206;SDS011;19565;46.602;11.534;2022-11-15T14:35:48;32.03;;;30.53;;
33206;SDS011;19565;46.602;11.534;2022-11-15T14:38:17;31.50;;;30.10;;
33206;SDS011;19565;46.602;11.534;2022-11-15T14:40:44;28.43;;;26.93;;
33206;SDS011;19565;46.602;11.534;2022-11-15T14:43:14;37.37;;;35.70;;
33206;SDS011;19565;46.602;11.534;2022-11-15T14:45:44;31.37;;;29.97;;
33206;SDS011;19565;46.602;11.534;2022-11-15T14:48:12;27.87;;;26.57;;
33206;SDS011;19565;46.602;11.534;2022-11-15T14:50:40;27.90;;;26.60;;
33206;SDS011;19565;46.602;11.534;2022-11-15T14:53:11;34.80;;;33.20;;
33206;SDS011;19565;46.602;11.534;2022-11-15T14:55:40;33.33;;;31.83;;
33206;SDS011;19565;46.602;11.534;2022-11-15T14:58:09;33.00;;;31.47;;
33206;SDS011;19565;46.602;11.534;2022-11-15T15:00:38;35.13;;;33.53;;
33206;SDS011;19565;46.602;11.534;2022-11-15T15:03:08;37.00;;;35.33;;
33206;SDS011;19565;46.602;11.534;2022-11-15T15:05:37;37.80;;;36.10;;
33206;SDS011;19565;46.602;11.534;2022-11-15T15:08:06;44.73;;;42.83;;
33206;SDS011;19565;46.602;11.534;2022-11-15T15:10:36;37.00;;;35.40;;
33206;SDS011;19565;46.602;11.534;2022-11-15T15:13:10;44.33;;;42.37;;
33206;SDS011;19565;46.602;11.534;2022-11-15T15:15:43;32.47;;;30.97;;
33206;SDS011;19565;46.602;11.534;2022-11-15T15:18:13;34.13;;;32.53;;